sensor_id;sensor_type;location;lat;lon;timestamp;temperature;humidity
6865;DHT22;3471;49.678;8.388;2022-12-22T00:01:36;10.90;99.90
6865;DHT22;3471;49.678;8.388;2022-12-22T00:04:21;10.90;99.90
6865;DHT22;3471;49.678;8.388;2022-12-22T00:07:06;10.90;99.90
6865;DHT22;3471;49.678;8.388;2022-12-22T00:09:50;10.80;99.90
6865;DHT22;3471;49.678;8.388;2022-12-22T00:12:34;10.90;99.90
6865;DHT22;3471;49.678;8.388;2022-12-22T00:15:19;10.90;99.90
6865;DHT22;3471;49.678;8.388;2022-12-22T00:18:04;10.90;99.90
6865;DHT22;3471;49.678;8.388;2022-12-22T00:20:48;10.90;99.90
6865;DHT22;3471;49.678;8.388;2022-12-22T00:23:32;10.80;99.90
6865;DHT22;3471;49.678;8.388;2022-12-22T00:26:16;10.80;99.90
6865;DHT22;3471;49.678;8.388;2022-12-22T00:29:02;10.80;99.90
6865;DHT22;3471;49.678;8.388;2022-12-22T00:31:47;10.80;99.90
6865;DHT22;3471;49.678;8.388;2022-12-22T00:34:39;10.70;99.90
6865;DHT22;3471;49.678;8.388;2022-12-22T00:37:33;10.70;99.90
6865;DHT22;3471;49.678;8.388;2022-12-22T00:40:20;10.70;99.90
6865;DHT22;3471;49.678;8.388;2022-12-22T00:43:04;10.70;99.90
6865;DHT22;3471;49.678;8.388;2022-12-22T00:45:50;10.80;99.90
6865;DHT22;3471;49.678;8.388;2022-12-22T00:48:36;10.70;99.90
6865;DHT22;3471;49.678;8.388;2022-12-22T00:51:21;10.60;99.90
6865;DHT22;3471;49.678;8.388;2022-12-22T00:54:10;10.70;99.90
6865;DHT22;3471;49.678;8.388;2022-12-22T00:56:54;10.60;99.90
6865;DHT22;3471;49.678;8.388;2022-12-22T00:59:39;10.70;99.90
6865;DHT22;3471;49.678;8.388;2022-12-22T01:02:23;10.70;99.90
6865;DHT22;3471;49.678;8.388;2022-12-22T01:05:07;10.70;99.90
6865;DHT22;3471;49.678;8.388;2022-12-22T01:07:52;10.70;99.90
6865;DHT22;3471;49.678;8.388;2022-12-22T01:10:36;10.70;99.90
6865;DHT22;3471;49.678;8.388;2022-12-22T01:13:20;10.70;99.90
6865;DHT22;3471;49.678;8.388;2022-12-22T01:16:04;10.60;99.90
6865;DHT22;3471;49.678;8.388;2022-12-22T01:18:48;10.60;99.90
6865;DHT22;3471;49.678;8.388;2022-12-22T01:21:33;10.70;99.90
6865;DHT22;3471;49.678;8.388;2022-12-22T01:24:17;10.70;99.90
6865;DHT22;3471;49.678;8.388;2022-12-22T01:27:03;10.70;99.90
6865;DHT22;3471;49.678;8.388;2022-12-22T01:29:47;10.70;99.90
6865;DHT22;3471;49.678;8.388;2022-12-22T01:32:31;10.60;99.90
6865;DHT22;3471;49.678;8.388;2022-12-22T01:35:21;10.60;99.90
6865;DHT22;3471;49.678;8.388;2022-12-22T01:38:06;10.60;99.90
6865;DHT22;3471;49.678;8.388;2022-12-22T01:40:51;10.60;99.90
6865;DHT22;3471;49.678;8.388;2022-12-22T01:43:36;10.60;99.90
6865;DHT22;3471;49.678;8.388;2022-12-22T01:49:13;10.50;99.90
6865;DHT22;3471;49.678;8.388;2022-12-22T01:51:58;10.60;99.90
6865;DHT22;3471;49.678;8.388;2022-12-22T01:54:42;10.60;99.90
6865;DHT22;3471;49.678;8.388;2022-12-22T01:57:27;10.60;99.90
6865;DHT22;3471;49.678;8.388;2022-12-22T02:00:13;10.60;99.90
6865;DHT22;3471;49.678;8.388;2022-12-22T02:03:00;10.60;99.90
6865;DHT22;3471;49.678;8.388;2022-12-22T02:06:17;10.60;99.90
6865;DHT22;3471;49.678;8.388;2022-12-22T02:12:38;10.60;99.90
6865;DHT22;3471;49.678;8.388;2022-12-22T02:15:47;10.60;99.90
6865;DHT22;3471;49.678;8.388;2022-12-22T02:21:25;10.60;99.90
6865;DHT22;3471;49.678;8.388;2022-12-22T02:27:16;10.60;99.90
6865;DHT22;3471;49.678;8.388;2022-12-22T02:30:04;10.50;99.90
6865;DHT22;3471;49.678;8.388;2022-12-22T02:32:49;10.50;99.90
6865;DHT22;3471;49.678;8.388;2022-12-22T02:36:07;10.50;99.90
6865;DHT22;3471;49.678;8.388;2022-12-22T02:39:15;10.50;99.90
6865;DHT22;3471;49.678;8.388;2022-12-22T02:45:09;10.50;99.90
6865;DHT22;3471;49.678;8.388;2022-12-22T02:48:12;10.60;99.90
6865;DHT22;3471;49.678;8.388;2022-12-22T02:51:26;10.60;99.90
6865;DHT22;3471;49.678;8.388;2022-12-22T02:54:11;10.60;99.90
6865;DHT22;3471;49.678;8.388;2022-12-22T02:56:56;10.60;99.90
6865;DHT22;3471;49.678;8.388;2022-12-22T02:59:40;10.60;99.90
6865;DHT22;3471;49.678;8.388;2022-12-22T03:02:24;10.60;99.90
6865;DHT22;3471;49.678;8.388;2022-12-22T03:05:08;10.60;99.90
6865;DHT22;3471;49.678;8.388;2022-12-22T03:07:52;10.60;99.90
6865;DHT22;3471;49.678;8.388;2022-12-22T03:10:36;10.70;99.90
6865;DHT22;3471;49.678;8.388;2022-12-22T03:13:21;10.60;99.90
6865;DHT22;3471;49.678;8.388;2022-12-22T03:16:05;10.60;99.90
6865;DHT22;3471;49.678;8.388;2022-12-22T03:18:49;10.70;99.90
6865;DHT22;3471;49.678;8.388;2022-12-22T03:21:33;10.70;99.90
6865;DHT22;3471;49.678;8.388;2022-12-22T03:24:17;10.70;99.90
6865;DHT22;3471;49.678;8.388;2022-12-22T03:27:01;10.70;99.90
6865;DHT22;3471;49.678;8.388;2022-12-22T03:29:26;10.70;99.90
6865;DHT22;3471;49.678;8.388;2022-12-22T03:31:52;10.70;99.90
6865;DHT22;3471;49.678;8.388;2022-12-22T03:34:18;10.80;99.90
6865;DHT22;3471;49.678;8.388;2022-12-22T03:36:43;10.70;99.90
6865;DHT22;3471;49.678;8.388;2022-12-22T03:39:09;10.80;99.90
6865;DHT22;3471;49.678;8.388;2022-12-22T03:41:34;10.70;99.90
6865;DHT22;3471;49.678;8.388;2022-12-22T03:44:19;10.70;99.90
6865;DHT22;3471;49.678;8.388;2022-12-22T03:47:03;10.80;99.90
6865;DHT22;3471;49.678;8.388;2022-12-22T03:49:28;10.70;99.90
6865;DHT22;3471;49.678;8.388;2022-12-22T03:51:54;10.70;99.90
6865;DHT22;3471;49.678;8.388;2022-12-22T03:54:22;10.70;99.90
6865;DHT22;3471;49.678;8.388;2022-12-22T03:56:48;10.70;99.90
6865;DHT22;3471;49.678;8.388;2022-12-22T03:59:15;10.70;99.90
6865;DHT22;3471;49.678;8.388;2022-12-22T04:01:46;10.80;99.90
6865;DHT22;3471;49.678;8.388;2022-12-22T04:04:13;10.70;99.90
6865;DHT22;3471;49.678;8.388;2022-12-22T04:06:39;10.80;99.90
6865;DHT22;3471;49.678;8.388;2022-12-22T04:09:05;10.70;99.90
6865;DHT22;3471;49.678;8.388;2022-12-22T04:11:30;10.80;99.90
6865;DHT22;3471;49.678;8.388;2022-12-22T04:14:15;10.80;99.90
6865;DHT22;3471;49.678;8.388;2022-12-22T04:16:41;10.90;99.90
6865;DHT22;3471;49.678;8.388;2022-12-22T04:19:07;10.80;99.90
6865;DHT22;3471;49.678;8.388;2022-12-22T04:21:34;10.90;99.90
6865;DHT22;3471;49.678;8.388;2022-12-22T04:24:00;10.90;99.90
6865;DHT22;3471;49.678;8.388;2022-12-22T04:26:26;10.80;99.90
6865;DHT22;3471;49.678;8.388;2022-12-22T04:28:52;10.90;99.90
6865;DHT22;3471;49.678;8.388;2022-12-22T04:31:18;10.80;99.90
6865;DHT22;3471;49.678;8.388;2022-12-22T04:33:44;10.90;99.90
6865;DHT22;3471;49.678;8.388;2022-12-22T04:36:10;10.90;99.90
6865;DHT22;3471;49.678;8.388;2022-12-22T04:38:36;10.90;99.90
6865;DHT22;3471;49.678;8.388;2022-12-22T04:41:02;10.90;99.90
6865;DHT22;3471;49.678;8.388;2022-12-22T04:43:27;10.90;99.90
6865;DHT22;3471;49.678;8.388;2022-12-22T04:45:53;10.90;99.90
6865;DHT22;3471;49.678;8.388;2022-12-22T04:48:19;10.80;99.90
6865;DHT22;3471;49.678;8.388;2022-12-22T04:50:48;10.80;99.90
6865;DHT22;3471;49.678;8.388;2022-12-22T04:53:14;10.80;99.90
6865;DHT22;3471;49.678;8.388;2022-12-22T04:55:47;10.80;99.90
6865;DHT22;3471;49.678;8.388;2022-12-22T04:58:14;10.80;99.90
6865;DHT22;3471;49.678;8.388;2022-12-22T05:00:40;10.80;99.90
6865;DHT22;3471;49.678;8.388;2022-12-22T05:03:06;10.80;99.90
6865;DHT22;3471;49.678;8.388;2022-12-22T05:05:32;10.80;99.90
6865;DHT22;3471;49.678;8.388;2022-12-22T05:07:57;10.80;99.90
6865;DHT22;3471;49.678;8.388;2022-12-22T05:10:23;10.80;99.90
6865;DHT22;3471;49.678;8.388;2022-12-22T05:12:48;10.70;99.90
6865;DHT22;3471;49.678;8.388;2022-12-22T05:15:25;10.70;99.90
6865;DHT22;3471;49.678;8.388;2022-12-22T05:17:51;10.70;99.90
6865;DHT22;3471;49.678;8.388;2022-12-22T05:20:17;10.70;99.90
6865;DHT22;3471;49.678;8.388;2022-12-22T05:22:43;10.70;99.90
6865;DHT22;3471;49.678;8.388;2022-12-22T05:25:09;10.70;99.90
6865;DHT22;3471;49.678;8.388;2022-12-22T05:27:35;10.80;99.90
6865;DHT22;3471;49.678;8.388;2022-12-22T05:30:01;10.80;99.90
6865;DHT22;3471;49.678;8.388;2022-12-22T05:32:27;10.80;99.90
6865;DHT22;3471;49.678;8.388;2022-12-22T05:34:53;10.80;99.90
6865;DHT22;3471;49.678;8.388;2022-12-22T05:37:18;10.80;99.90
6865;DHT22;3471;49.678;8.388;2022-12-22T05:39:44;10.80;99.90
6865;DHT22;3471;49.678;8.388;2022-12-22T05:42:09;10.80;99.90
6865;DHT22;3471;49.678;8.388;2022-12-22T05:44:35;10.80;99.90
6865;DHT22;3471;49.678;8.388;2022-12-22T05:47:00;10.80;99.90
6865;DHT22;3471;49.678;8.388;2022-12-22T05:49:26;10.90;99.90
6865;DHT22;3471;49.678;8.388;2022-12-22T05:51:52;10.90;99.90
6865;DHT22;3471;49.678;8.388;2022-12-22T05:54:18;10.90;99.90
6865;DHT22;3471;49.678;8.388;2022-12-22T05:56:44;10.90;99.90
6865;DHT22;3471;49.678;8.388;2022-12-22T05:59:10;10.90;99.90
6865;DHT22;3471;49.678;8.388;2022-12-22T06:01:36;10.90;99.90
6865;DHT22;3471;49.678;8.388;2022-12-22T06:04:02;11.00;99.90
6865;DHT22;3471;49.678;8.388;2022-12-22T06:06:28;11.00;99.90
6865;DHT22;3471;49.678;8.388;2022-12-22T06:08:54;11.10;99.90
6865;DHT22;3471;49.678;8.388;2022-12-22T06:11:20;11.10;99.90
6865;DHT22;3471;49.678;8.388;2022-12-22T06:13:45;11.10;99.90
6865;DHT22;3471;49.678;8.388;2022-12-22T06:16:11;11.10;99.90
6865;DHT22;3471;49.678;8.388;2022-12-22T06:18:36;11.10;99.90
6865;DHT22;3471;49.678;8.388;2022-12-22T06:21:02;11.20;99.90
6865;DHT22;3471;49.678;8.388;2022-12-22T06:23:28;11.20;99.90
6865;DHT22;3471;49.678;8.388;2022-12-22T06:25:58;11.20;99.90
6865;DHT22;3471;49.678;8.388;2022-12-22T06:28:25;11.20;99.90
6865;DHT22;3471;49.678;8.388;2022-12-22T06:30:51;11.20;99.90
6865;DHT22;3471;49.678;8.388;2022-12-22T06:33:17;11.20;99.90
6865;DHT22;3471;49.678;8.388;2022-12-22T06:35:43;11.30;99.90
6865;DHT22;3471;49.678;8.388;2022-12-22T06:38:08;11.30;99.90
6865;DHT22;3471;49.678;8.388;2022-12-22T06:40:34;11.40;99.90
6865;DHT22;3471;49.678;8.388;2022-12-22T06:42:59;11.40;99.90
6865;DHT22;3471;49.678;8.388;2022-12-22T06:45:35;11.40;99.90
6865;DHT22;3471;49.678;8.388;2022-12-22T06:48:01;11.30;99.90
6865;DHT22;3471;49.678;8.388;2022-12-22T06:50:27;11.30;99.90
6865;DHT22;3471;49.678;8.388;2022-12-22T06:52:52;11.30;99.90
6865;DHT22;3471;49.678;8.388;2022-12-22T06:55:20;11.30;99.90
6865;DHT22;3471;49.678;8.388;2022-12-22T06:57:45;11.30;99.90
6865;DHT22;3471;49.678;8.388;2022-12-22T07:00:11;11.30;99.90
6865;DHT22;3471;49.678;8.388;2022-12-22T07:02:37;11.20;99.90
6865;DHT22;3471;49.678;8.388;2022-12-22T07:05:02;11.20;99.90
6865;DHT22;3471;49.678;8.388;2022-12-22T07:07:28;11.20;99.90
6865;DHT22;3471;49.678;8.388;2022-12-22T07:09:54;11.20;99.90
6865;DHT22;3471;49.678;8.388;2022-12-22T07:12:21;11.20;99.90
6865;DHT22;3471;49.678;8.388;2022-12-22T07:14:46;11.20;99.90
6865;DHT22;3471;49.678;8.388;2022-12-22T07:17:12;11.20;99.90
6865;DHT22;3471;49.678;8.388;2022-12-22T07:19:38;11.20;99.90
6865;DHT22;3471;49.678;8.388;2022-12-22T07:22:03;11.20;99.90
6865;DHT22;3471;49.678;8.388;2022-12-22T07:24:29;11.30;99.90
6865;DHT22;3471;49.678;8.388;2022-12-22T07:26:54;11.30;99.90
6865;DHT22;3471;49.678;8.388;2022-12-22T07:29:20;11.30;99.90
6865;DHT22;3471;49.678;8.388;2022-12-22T07:31:46;11.30;99.90
6865;DHT22;3471;49.678;8.388;2022-12-22T07:34:12;11.30;99.90
6865;DHT22;3471;49.678;8.388;2022-12-22T07:36:38;11.30;99.90
6865;DHT22;3471;49.678;8.388;2022-12-22T07:39:03;11.30;99.90
6865;DHT22;3471;49.678;8.388;2022-12-22T07:41:29;11.30;99.90
6865;DHT22;3471;49.678;8.388;2022-12-22T07:44:13;11.40;99.90
6865;DHT22;3471;49.678;8.388;2022-12-22T07:46:39;11.50;99.90
6865;DHT22;3471;49.678;8.388;2022-12-22T07:49:05;11.50;99.90
6865;DHT22;3471;49.678;8.388;2022-12-22T07:51:50;11.60;99.90
6865;DHT22;3471;49.678;8.388;2022-12-22T07:54:16;11.60;99.90
6865;DHT22;3471;49.678;8.388;2022-12-22T07:56:43;11.60;99.90
6865;DHT22;3471;49.678;8.388;2022-12-22T07:59:09;11.60;99.90
6865;DHT22;3471;49.678;8.388;2022-12-22T08:01:35;11.70;99.90
6865;DHT22;3471;49.678;8.388;2022-12-22T08:04:01;11.70;99.90
6865;DHT22;3471;49.678;8.388;2022-12-22T08:06:26;11.80;99.90
6865;DHT22;3471;49.678;8.388;2022-12-22T08:08:52;11.80;99.90
6865;DHT22;3471;49.678;8.388;2022-12-22T08:11:18;11.90;99.90
6865;DHT22;3471;49.678;8.388;2022-12-22T08:13:43;11.90;99.90
6865;DHT22;3471;49.678;8.388;2022-12-22T08:16:10;11.90;99.90
6865;DHT22;3471;49.678;8.388;2022-12-22T08:18:37;11.90;99.90
6865;DHT22;3471;49.678;8.388;2022-12-22T08:21:04;11.90;99.90
6865;DHT22;3471;49.678;8.388;2022-12-22T08:23:30;11.90;99.90
6865;DHT22;3471;49.678;8.388;2022-12-22T08:26:10;12.00;99.90
6865;DHT22;3471;49.678;8.388;2022-12-22T08:29:06;12.10;99.90
6865;DHT22;3471;49.678;8.388;2022-12-22T08:31:33;12.10;99.90
6865;DHT22;3471;49.678;8.388;2022-12-22T08:34:02;12.30;99.90
6865;DHT22;3471;49.678;8.388;2022-12-22T08:36:29;12.40;99.90
6865;DHT22;3471;49.678;8.388;2022-12-22T08:38:56;12.40;99.90
6865;DHT22;3471;49.678;8.388;2022-12-22T08:41:23;12.40;99.90
6865;DHT22;3471;49.678;8.388;2022-12-22T08:44:07;12.50;99.90
6865;DHT22;3471;49.678;8.388;2022-12-22T08:46:32;12.50;99.90
6865;DHT22;3471;49.678;8.388;2022-12-22T08:48:58;12.50;99.90
6865;DHT22;3471;49.678;8.388;2022-12-22T08:51:24;12.40;99.90
6865;DHT22;3471;49.678;8.388;2022-12-22T08:53:49;12.40;99.90
6865;DHT22;3471;49.678;8.388;2022-12-22T08:56:15;12.40;99.90
6865;DHT22;3471;49.678;8.388;2022-12-22T08:58:40;12.40;99.90
6865;DHT22;3471;49.678;8.388;2022-12-22T09:01:06;12.40;99.90
6865;DHT22;3471;49.678;8.388;2022-12-22T09:03:31;12.30;99.90
6865;DHT22;3471;49.678;8.388;2022-12-22T09:06:01;12.30;99.90
6865;DHT22;3471;49.678;8.388;2022-12-22T09:08:26;12.30;99.90
6865;DHT22;3471;49.678;8.388;2022-12-22T09:10:52;12.40;99.90
6865;DHT22;3471;49.678;8.388;2022-12-22T09:13:18;12.30;99.90
6865;DHT22;3471;49.678;8.388;2022-12-22T09:15:43;12.40;99.90
6865;DHT22;3471;49.678;8.388;2022-12-22T09:18:09;12.40;99.90
6865;DHT22;3471;49.678;8.388;2022-12-22T09:20:34;12.50;99.90
6865;DHT22;3471;49.678;8.388;2022-12-22T09:23:00;12.50;99.90
6865;DHT22;3471;49.678;8.388;2022-12-22T09:25:26;12.50;99.90
6865;DHT22;3471;49.678;8.388;2022-12-22T09:27:51;12.40;99.90
6865;DHT22;3471;49.678;8.388;2022-12-22T09:30:17;12.40;99.90
6865;DHT22;3471;49.678;8.388;2022-12-22T09:32:43;12.40;99.90
6865;DHT22;3471;49.678;8.388;2022-12-22T09:35:08;12.40;99.90
6865;DHT22;3471;49.678;8.388;2022-12-22T09:37:34;12.50;99.90
6865;DHT22;3471;49.678;8.388;2022-12-22T09:39:59;12.40;99.90
6865;DHT22;3471;49.678;8.388;2022-12-22T09:42:25;12.40;99.90
6865;DHT22;3471;49.678;8.388;2022-12-22T09:44:51;12.30;99.90
6865;DHT22;3471;49.678;8.388;2022-12-22T09:47:30;12.30;99.90
6865;DHT22;3471;49.678;8.388;2022-12-22T09:49:56;12.30;99.90
6865;DHT22;3471;49.678;8.388;2022-12-22T09:55:11;12.20;99.90
6865;DHT22;3471;49.678;8.388;2022-12-22T09:57:37;12.30;99.90
6865;DHT22;3471;49.678;8.388;2022-12-22T10:00:23;12.30;99.90
6865;DHT22;3471;49.678;8.388;2022-12-22T10:05:55;12.20;99.90
6865;DHT22;3471;49.678;8.388;2022-12-22T10:08:32;12.20;99.90
6865;DHT22;3471;49.678;8.388;2022-12-22T10:10:58;12.20;99.90
6865;DHT22;3471;49.678;8.388;2022-12-22T10:13:23;12.20;99.90
6865;DHT22;3471;49.678;8.388;2022-12-22T10:15:49;12.10;99.90
6865;DHT22;3471;49.678;8.388;2022-12-22T10:18:27;12.10;99.90
6865;DHT22;3471;49.678;8.388;2022-12-22T10:21:13;12.20;99.90
6865;DHT22;3471;49.678;8.388;2022-12-22T10:23:46;12.20;99.90
6865;DHT22;3471;49.678;8.388;2022-12-22T10:26:27;12.20;99.90
6865;DHT22;3471;49.678;8.388;2022-12-22T10:29:05;12.30;99.90
6865;DHT22;3471;49.678;8.388;2022-12-22T10:31:33;12.30;99.90
6865;DHT22;3471;49.678;8.388;2022-12-22T10:34:11;12.30;99.90
6865;DHT22;3471;49.678;8.388;2022-12-22T10:36:38;12.20;99.90
6865;DHT22;3471;49.678;8.388;2022-12-22T10:39:07;12.30;99.90
6865;DHT22;3471;49.678;8.388;2022-12-22T10:41:46;12.30;99.90
6865;DHT22;3471;49.678;8.388;2022-12-22T10:46:45;12.30;99.90
6865;DHT22;3471;49.678;8.388;2022-12-22T10:49:23;12.30;99.90
6865;DHT22;3471;49.678;8.388;2022-12-22T10:52:13;12.20;99.90
6865;DHT22;3471;49.678;8.388;2022-12-22T10:54:40;12.30;99.90
6865;DHT22;3471;49.678;8.388;2022-12-22T11:00:00;12.20;99.90
6865;DHT22;3471;49.678;8.388;2022-12-22T11:02:35;12.30;99.90
6865;DHT22;3471;49.678;8.388;2022-12-22T11:05:09;12.30;99.90
6865;DHT22;3471;49.678;8.388;2022-12-22T11:07:40;12.30;99.90
6865;DHT22;3471;49.678;8.388;2022-12-22T11:10:31;12.30;99.90
6865;DHT22;3471;49.678;8.388;2022-12-22T11:18:27;12.30;99.90
6865;DHT22;3471;49.678;8.388;2022-12-22T11:21:01;12.30;99.90
6865;DHT22;3471;49.678;8.388;2022-12-22T11:23:45;12.30;99.90
6865;DHT22;3471;49.678;8.388;2022-12-22T11:39:55;12.30;99.90
6865;DHT22;3471;49.678;8.388;2022-12-22T11:57:01;12.20;99.90
6865;DHT22;3471;49.678;8.388;2022-12-22T11:59:51;12.20;99.90
6865;DHT22;3471;49.678;8.388;2022-12-22T12:02:54;12.20;99.90
6865;DHT22;3471;49.678;8.388;2022-12-22T12:11:32;12.30;99.90
6865;DHT22;3471;49.678;8.388;2022-12-22T12:17:49;12.30;99.90
6865;DHT22;3471;49.678;8.388;2022-12-22T12:25:37;12.30;99.90
6865;DHT22;3471;49.678;8.388;2022-12-22T12:28:16;12.20;99.90
6865;DHT22;3471;49.678;8.388;2022-12-22T12:30:58;12.20;99.90
6865;DHT22;3471;49.678;8.388;2022-12-22T12:33:48;12.10;99.90
6865;DHT22;3471;49.678;8.388;2022-12-22T12:42:36;12.20;99.90
6865;DHT22;3471;49.678;8.388;2022-12-22T12:45:28;12.30;99.90
6865;DHT22;3471;49.678;8.388;2022-12-22T12:47:49;12.30;99.90
6865;DHT22;3471;49.678;8.388;2022-12-22T12:50:32;12.30;99.90
6865;DHT22;3471;49.678;8.388;2022-12-22T12:53:02;12.30;99.90
6865;DHT22;3471;49.678;8.388;2022-12-22T13:01:52;12.30;99.90
6865;DHT22;3471;49.678;8.388;2022-12-22T13:03:58;12.30;99.90
6865;DHT22;3471;49.678;8.388;2022-12-22T13:09:21;12.30;99.90
6865;DHT22;3471;49.678;8.388;2022-12-22T13:11:47;12.30;99.90
6865;DHT22;3471;49.678;8.388;2022-12-22T13:20:02;12.30;99.90
6865;DHT22;3471;49.678;8.388;2022-12-22T13:22:28;12.30;99.90
6865;DHT22;3471;49.678;8.388;2022-12-22T13:24:55;12.30;99.90
6865;DHT22;3471;49.678;8.388;2022-12-22T13:27:21;12.30;99.90
6865;DHT22;3471;49.678;8.388;2022-12-22T13:29:47;12.20;99.90
6865;DHT22;3471;49.678;8.388;2022-12-22T13:32:29;12.20;99.90
6865;DHT22;3471;49.678;8.388;2022-12-22T13:37:29;12.20;99.90
6865;DHT22;3471;49.678;8.388;2022-12-22T13:43:03;12.10;99.90
6865;DHT22;3471;49.678;8.388;2022-12-22T13:48:07;12.10;99.90
6865;DHT22;3471;49.678;8.388;2022-12-22T13:50:37;12.00;99.90
6865;DHT22;3471;49.678;8.388;2022-12-22T13:53:08;12.00;99.90
6865;DHT22;3471;49.678;8.388;2022-12-22T13:55:34;12.10;99.90
6865;DHT22;3471;49.678;8.388;2022-12-22T13:58:24;12.10;99.90
6865;DHT22;3471;49.678;8.388;2022-12-22T14:03:38;12.20;99.90
6865;DHT22;3471;49.678;8.388;2022-12-22T14:06:35;12.20;99.90
6865;DHT22;3471;49.678;8.388;2022-12-22T14:11:37;12.20;99.90
6865;DHT22;3471;49.678;8.388;2022-12-22T14:14:13;12.20;99.90
6865;DHT22;3471;49.678;8.388;2022-12-22T14:16:47;12.20;99.90
6865;DHT22;3471;49.678;8.388;2022-12-22T14:19:14;12.20;99.90
6865;DHT22;3471;49.678;8.388;2022-12-22T14:21:42;12.20;99.90
6865;DHT22;3471;49.678;8.388;2022-12-22T14:24:18;12.00;99.90
6865;DHT22;3471;49.678;8.388;2022-12-22T14:26:45;12.00;99.90
6865;DHT22;3471;49.678;8.388;2022-12-22T14:29:16;12.00;99.90
6865;DHT22;3471;49.678;8.388;2022-12-22T14:31:59;11.90;99.90
6865;DHT22;3471;49.678;8.388;2022-12-22T14:34:31;12.00;99.90
6865;DHT22;3471;49.678;8.388;2022-12-22T14:36:57;12.00;99.90
6865;DHT22;3471;49.678;8.388;2022-12-22T14:39:26;11.90;99.90
6865;DHT22;3471;49.678;8.388;2022-12-22T14:41:54;11.90;99.90
6865;DHT22;3471;49.678;8.388;2022-12-22T14:44:22;12.00;99.90
6865;DHT22;3471;49.678;8.388;2022-12-22T14:54:57;12.00;99.90
6865;DHT22;3471;49.678;8.388;2022-12-22T14:57:38;12.00;99.90
6865;DHT22;3471;49.678;8.388;2022-12-22T15:00:27;11.80;99.90
6865;DHT22;3471;49.678;8.388;2022-12-22T15:03:02;11.70;99.90
6865;DHT22;3471;49.678;8.388;2022-12-22T15:05:33;11.60;99.90
6865;DHT22;3471;49.678;8.388;2022-12-22T15:08:04;11.50;99.90
6865;DHT22;3471;49.678;8.388;2022-12-22T15:10:40;11.50;99.90
6865;DHT22;3471;49.678;8.388;2022-12-22T15:13:20;11.50;99.90
6865;DHT22;3471;49.678;8.388;2022-12-22T15:15:51;11.50;99.90
6865;DHT22;3471;49.678;8.388;2022-12-22T15:18:21;11.60;99.90
6865;DHT22;3471;49.678;8.388;2022-12-22T15:20:48;11.70;99.90
6865;DHT22;3471;49.678;8.388;2022-12-22T15:23:14;11.80;99.90
6865;DHT22;3471;49.678;8.388;2022-12-22T15:25:41;11.90;99.90
6865;DHT22;3471;49.678;8.388;2022-12-22T15:28:07;11.90;99.90
6865;DHT22;3471;49.678;8.388;2022-12-22T15:30:32;12.00;99.90
6865;DHT22;3471;49.678;8.388;2022-12-22T15:32:58;12.00;99.90
6865;DHT22;3471;49.678;8.388;2022-12-22T15:35:28;12.00;99.90
6865;DHT22;3471;49.678;8.388;2022-12-22T15:37:54;12.00;99.90
6865;DHT22;3471;49.678;8.388;2022-12-22T15:40:21;11.90;99.90
6865;DHT22;3471;49.678;8.388;2022-12-22T15:42:48;11.90;99.90
6865;DHT22;3471;49.678;8.388;2022-12-22T15:45:14;11.90;99.90
6865;DHT22;3471;49.678;8.388;2022-12-22T15:47:43;11.80;99.90
6865;DHT22;3471;49.678;8.388;2022-12-22T15:50:42;11.90;99.90
6865;DHT22;3471;49.678;8.388;2022-12-22T15:53:13;11.90;99.90
6865;DHT22;3471;49.678;8.388;2022-12-22T15:55:42;12.00;99.90
6865;DHT22;3471;49.678;8.388;2022-12-22T15:58:14;12.00;99.90
6865;DHT22;3471;49.678;8.388;2022-12-22T16:00:40;12.10;99.90
6865;DHT22;3471;49.678;8.388;2022-12-22T16:03:08;12.10;99.90
6865;DHT22;3471;49.678;8.388;2022-12-22T16:05:34;12.10;99.90
6865;DHT22;3471;49.678;8.388;2022-12-22T16:08:00;12.10;99.90
6865;DHT22;3471;49.678;8.388;2022-12-22T16:10:28;12.00;99.90
6865;DHT22;3471;49.678;8.388;2022-12-22T16:12:55;12.00;99.90
6865;DHT22;3471;49.678;8.388;2022-12-22T16:15:25;12.00;99.90
6865;DHT22;3471;49.678;8.388;2022-12-22T16:17:52;11.90;99.90
6865;DHT22;3471;49.678;8.388;2022-12-22T16:20:18;11.90;99.90
6865;DHT22;3471;49.678;8.388;2022-12-22T16:22:45;11.90;99.90
6865;DHT22;3471;49.678;8.388;2022-12-22T16:25:19;11.90;99.90
6865;DHT22;3471;49.678;8.388;2022-12-22T16:27:45;11.90;99.90
6865;DHT22;3471;49.678;8.388;2022-12-22T16:30:24;11.90;99.90
6865;DHT22;3471;49.678;8.388;2022-12-22T16:32:51;11.90;99.90
6865;DHT22;3471;49.678;8.388;2022-12-22T16:35:20;11.90;99.90
6865;DHT22;3471;49.678;8.388;2022-12-22T16:37:46;11.80;99.90
6865;DHT22;3471;49.678;8.388;2022-12-22T16:40:16;11.80;99.90
6865;DHT22;3471;49.678;8.388;2022-12-22T16:43:11;11.80;99.90
6865;DHT22;3471;49.678;8.388;2022-12-22T16:45:37;11.80;99.90
6865;DHT22;3471;49.678;8.388;2022-12-22T16:48:11;11.70;99.90
6865;DHT22;3471;49.678;8.388;2022-12-22T16:50:37;11.70;99.90
6865;DHT22;3471;49.678;8.388;2022-12-22T16:53:04;11.70;99.90
6865;DHT22;3471;49.678;8.388;2022-12-22T16:55:30;11.70;99.90
6865;DHT22;3471;49.678;8.388;2022-12-22T16:57:56;11.60;99.90
6865;DHT22;3471;49.678;8.388;2022-12-22T17:00:29;11.60;99.90
6865;DHT22;3471;49.678;8.388;2022-12-22T17:03:01;11.50;99.90
6865;DHT22;3471;49.678;8.388;2022-12-22T17:05:34;11.50;99.90
6865;DHT22;3471;49.678;8.388;2022-12-22T17:08:02;11.50;99.90
6865;DHT22;3471;49.678;8.388;2022-12-22T17:10:29;11.50;99.90
6865;DHT22;3471;49.678;8.388;2022-12-22T17:12:55;11.40;99.90
6865;DHT22;3471;49.678;8.388;2022-12-22T17:15:22;11.40;99.90
6865;DHT22;3471;49.678;8.388;2022-12-22T17:17:49;11.40;99.90
6865;DHT22;3471;49.678;8.388;2022-12-22T17:20:17;11.30;99.90
6865;DHT22;3471;49.678;8.388;2022-12-22T17:22:52;11.30;99.90
6865;DHT22;3471;49.678;8.388;2022-12-22T17:25:24;11.20;99.90
6865;DHT22;3471;49.678;8.388;2022-12-22T17:27:50;11.20;99.90
6865;DHT22;3471;49.678;8.388;2022-12-22T17:30:18;11.10;99.90
6865;DHT22;3471;49.678;8.388;2022-12-22T17:32:44;11.10;99.90
6865;DHT22;3471;49.678;8.388;2022-12-22T17:35:16;11.00;99.90
6865;DHT22;3471;49.678;8.388;2022-12-22T17:37:43;11.00;99.90
6865;DHT22;3471;49.678;8.388;2022-12-22T17:40:28;11.00;99.90
6865;DHT22;3471;49.678;8.388;2022-12-22T17:42:58;10.90;99.90
6865;DHT22;3471;49.678;8.388;2022-12-22T17:45:24;11.00;99.90
6865;DHT22;3471;49.678;8.388;2022-12-22T17:47:50;10.90;99.90
6865;DHT22;3471;49.678;8.388;2022-12-22T17:50:18;11.00;99.90
6865;DHT22;3471;49.678;8.388;2022-12-22T17:52:44;11.00;99.90
6865;DHT22;3471;49.678;8.388;2022-12-22T17:55:28;11.00;99.90
6865;DHT22;3471;49.678;8.388;2022-12-22T17:57:54;11.00;99.90
6865;DHT22;3471;49.678;8.388;2022-12-22T18:00:24;11.00;99.90
6865;DHT22;3471;49.678;8.388;2022-12-22T18:02:51;11.00;99.90
6865;DHT22;3471;49.678;8.388;2022-12-22T18:05:23;11.00;99.90
6865;DHT22;3471;49.678;8.388;2022-12-22T18:07:52;11.00;99.90
6865;DHT22;3471;49.678;8.388;2022-12-22T18:10:35;11.00;99.90
6865;DHT22;3471;49.678;8.388;2022-12-22T18:13:02;11.00;99.90
6865;DHT22;3471;49.678;8.388;2022-12-22T18:15:29;11.00;99.90
6865;DHT22;3471;49.678;8.388;2022-12-22T18:17:56;11.00;99.90
6865;DHT22;3471;49.678;8.388;2022-12-22T18:20:24;11.00;99.90
6865;DHT22;3471;49.678;8.388;2022-12-22T18:22:58;11.00;99.90
6865;DHT22;3471;49.678;8.388;2022-12-22T18:25:27;11.00;99.90
6865;DHT22;3471;49.678;8.388;2022-12-22T18:27:52;11.10;99.90
6865;DHT22;3471;49.678;8.388;2022-12-22T18:30:19;11.10;99.90
6865;DHT22;3471;49.678;8.388;2022-12-22T18:32:46;11.10;99.90
6865;DHT22;3471;49.678;8.388;2022-12-22T18:35:13;11.10;99.90